sensor_id;sensor_type;location;lat;lon;timestamp;noise_LAeq;noise_LA_min;noise_LA_max;noise_LA01;noise_LA95
40465;Laerm;30489;48.982;8.394;2023-05-01T00:01:56;39.21;37.12;40.96;;
40465;Laerm;30489;48.982;8.394;2023-05-01T00:04:07;39.27;37.12;41.14;;
40465;Laerm;30489;48.982;8.394;2023-05-01T00:06:17;39.24;37.12;40.98;;
40465;Laerm;30489;48.982;8.394;2023-05-01T00:08:27;39.27;37.12;41.14;;
40465;Laerm;30489;48.982;8.394;2023-05-01T00:10:38;39.26;37.32;41.22;;
40465;Laerm;30489;48.982;8.394;2023-05-01T00:12:48;39.27;37.12;40.88;;
40465;Laerm;30489;48.982;8.394;2023-05-01T00:14:58;39.29;36.45;40.98;;
40465;Laerm;30489;48.982;8.394;2023-05-01T00:17:09;39.29;37.12;41.06;;
40465;Laerm;30489;48.982;8.394;2023-05-01T00:19:19;39.26;37.12;41.14;;
40465;Laerm;30489;48.982;8.394;2023-05-01T00:21:29;39.28;36.91;41.11;;
40465;Laerm;30489;48.982;8.394;2023-05-01T00:23:39;39.27;37.12;41.38;;
40465;Laerm;30489;48.982;8.394;2023-05-01T00:25:50;39.29;36.69;40.98;;
40465;Laerm;30489;48.982;8.394;2023-05-01T00:28:00;39.30;37.32;41.38;;
40465;Laerm;30489;48.982;8.394;2023-05-01T00:30:11;39.30;37.12;40.89;;
40465;Laerm;30489;48.982;8.394;2023-05-01T00:32:21;39.29;36.98;41.22;;
40465;Laerm;30489;48.982;8.394;2023-05-01T00:34:31;39.31;37.12;40.89;;
40465;Laerm;30489;48.982;8.394;2023-05-01T00:36:42;39.31;37.12;40.89;;
40465;Laerm;30489;48.982;8.394;2023-05-01T00:38:52;39.32;37.12;41.06;;
40465;Laerm;30489;48.982;8.394;2023-05-01T00:41:02;39.33;37.52;40.89;;
40465;Laerm;30489;48.982;8.394;2023-05-01T00:43:12;39.33;37.12;40.80;;
40465;Laerm;30489;48.982;8.394;2023-05-01T00:45:23;39.32;37.12;41.06;;
40465;Laerm;30489;48.982;8.394;2023-05-01T00:47:34;39.34;37.32;41.38;;
40465;Laerm;30489;48.982;8.394;2023-05-01T00:49:45;39.33;36.91;41.22;;
40465;Laerm;30489;48.982;8.394;2023-05-01T00:51:56;39.35;37.12;40.98;;
40465;Laerm;30489;48.982;8.394;2023-05-01T00:54:07;39.34;37.32;40.98;;
40465;Laerm;30489;48.982;8.394;2023-05-01T00:56:17;39.36;37.52;41.30;;
40465;Laerm;30489;48.982;8.394;2023-05-01T00:58:28;39.37;37.12;40.89;;
40465;Laerm;30489;48.982;8.394;2023-05-01T01:00:38;39.37;37.52;40.98;;
40465;Laerm;30489;48.982;8.394;2023-05-01T01:02:49;39.38;37.32;40.88;;
40465;Laerm;30489;48.982;8.394;2023-05-01T01:04:59;39.38;37.12;41.06;;
40465;Laerm;30489;48.982;8.394;2023-05-01T01:12:26;39.39;37.32;41.06;;
40465;Laerm;30489;48.982;8.394;2023-05-01T01:15:28;39.40;37.52;41.46;;
40465;Laerm;30489;48.982;8.394;2023-05-01T01:17:12;39.42;37.32;41.14;;
40465;Laerm;30489;48.982;8.394;2023-05-01T01:21:54;39.43;37.12;42.65;;
40465;Laerm;30489;48.982;8.394;2023-05-01T01:26:50;39.44;37.52;41.14;;
40465;Laerm;30489;48.982;8.394;2023-05-01T01:31:28;39.46;37.35;41.06;;
40465;Laerm;30489;48.982;8.394;2023-05-01T01:33:48;39.46;37.32;41.14;;
40465;Laerm;30489;48.982;8.394;2023-05-01T01:36:01;39.47;37.52;41.14;;
40465;Laerm;30489;48.982;8.394;2023-05-01T01:38:16;39.45;37.52;41.22;;
40465;Laerm;30489;48.982;8.394;2023-05-01T01:40:30;39.47;37.52;41.14;;
40465;Laerm;30489;48.982;8.394;2023-05-01T01:42:44;39.45;37.52;41.30;;
40465;Laerm;30489;48.982;8.394;2023-05-01T01:44:55;39.48;36.91;40.98;;
40465;Laerm;30489;48.982;8.394;2023-05-01T01:47:09;39.48;37.52;40.98;;
40465;Laerm;30489;48.982;8.394;2023-05-01T01:49:22;39.48;37.52;41.30;;
40465;Laerm;30489;48.982;8.394;2023-05-01T01:51:33;39.50;37.70;40.98;;
40465;Laerm;30489;48.982;8.394;2023-05-01T01:53:46;39.51;37.70;41.22;;
40465;Laerm;30489;48.982;8.394;2023-05-01T01:55:58;39.50;37.52;41.38;;
40465;Laerm;30489;48.982;8.394;2023-05-01T01:58:11;39.51;37.52;41.22;;
40465;Laerm;30489;48.982;8.394;2023-05-01T02:00:22;39.51;37.70;41.22;;
40465;Laerm;30489;48.982;8.394;2023-05-01T02:02:33;39.53;37.32;41.30;;
40465;Laerm;30489;48.982;8.394;2023-05-01T02:04:45;39.51;37.70;41.14;;
40465;Laerm;30489;48.982;8.394;2023-05-01T02:06:57;39.53;37.70;41.14;;
40465;Laerm;30489;48.982;8.394;2023-05-01T02:09:08;39.54;37.70;40.98;;
40465;Laerm;30489;48.982;8.394;2023-05-01T02:11:19;39.53;37.32;41.06;;
40465;Laerm;30489;48.982;8.394;2023-05-01T02:13:30;39.54;37.70;41.22;;
40465;Laerm;30489;48.982;8.394;2023-05-01T02:15:43;39.54;37.70;41.19;;
40465;Laerm;30489;48.982;8.394;2023-05-01T02:17:54;39.56;37.52;42.03;;
40465;Laerm;30489;48.982;8.394;2023-05-01T02:20:05;39.56;37.52;41.22;;
40465;Laerm;30489;48.982;8.394;2023-05-01T02:22:16;39.56;37.70;41.14;;
40465;Laerm;30489;48.982;8.394;2023-05-01T02:24:28;39.55;37.52;41.06;;
40465;Laerm;30489;48.982;8.394;2023-05-01T02:26:43;39.60;37.70;41.30;;
40465;Laerm;30489;48.982;8.394;2023-05-01T02:28:58;39.60;37.52;42.09;;
40465;Laerm;30489;48.982;8.394;2023-05-01T02:31:08;39.59;37.52;41.14;;
40465;Laerm;30489;48.982;8.394;2023-05-01T02:33:19;39.59;37.52;41.53;;
40465;Laerm;30489;48.982;8.394;2023-05-01T02:35:29;39.58;37.70;41.22;;
40465;Laerm;30489;48.982;8.394;2023-05-01T02:37:40;39.63;37.32;41.38;;
40465;Laerm;30489;48.982;8.394;2023-05-01T02:39:50;39.63;37.12;41.22;;
40465;Laerm;30489;48.982;8.394;2023-05-01T02:42:00;39.66;37.52;41.38;;
40465;Laerm;30489;48.982;8.394;2023-05-01T02:44:14;39.69;37.52;41.30;;
40465;Laerm;30489;48.982;8.394;2023-05-01T02:46:25;39.67;37.52;41.22;;
40465;Laerm;30489;48.982;8.394;2023-05-01T02:48:36;39.66;37.88;41.38;;
40465;Laerm;30489;48.982;8.394;2023-05-01T02:50:47;39.65;37.88;41.30;;
40465;Laerm;30489;48.982;8.394;2023-05-01T02:52:58;39.66;37.70;41.33;;
40465;Laerm;30489;48.982;8.394;2023-05-01T02:55:09;39.68;37.88;41.53;;
40465;Laerm;30489;48.982;8.394;2023-05-01T02:57:19;39.67;38.05;41.38;;
40465;Laerm;30489;48.982;8.394;2023-05-01T02:59:30;39.66;37.88;41.38;;
40465;Laerm;30489;48.982;8.394;2023-05-01T03:01:40;39.66;37.32;41.22;;
40465;Laerm;30489;48.982;8.394;2023-05-01T03:03:50;39.66;37.87;41.55;;
40465;Laerm;30489;48.982;8.394;2023-05-01T03:06:01;39.65;38.05;41.38;;
40465;Laerm;30489;48.982;8.394;2023-05-01T03:08:12;39.64;37.88;41.38;;
40465;Laerm;30489;48.982;8.394;2023-05-01T03:10:22;39.62;37.87;41.22;;
40465;Laerm;30489;48.982;8.394;2023-05-01T03:12:32;39.62;37.70;41.14;;
40465;Laerm;30489;48.982;8.394;2023-05-01T03:14:43;39.63;37.70;41.30;;
40465;Laerm;30489;48.982;8.394;2023-05-01T03:16:53;39.63;37.88;41.14;;
40465;Laerm;30489;48.982;8.394;2023-05-01T03:19:04;39.62;37.88;41.46;;
40465;Laerm;30489;48.982;8.394;2023-05-01T03:21:15;39.62;37.88;40.98;;
40465;Laerm;30489;48.982;8.394;2023-05-01T03:23:25;39.63;37.70;41.22;;
40465;Laerm;30489;48.982;8.394;2023-05-01T03:25:36;39.61;37.70;41.06;;
40465;Laerm;30489;48.982;8.394;2023-05-01T03:27:46;39.64;37.88;41.14;;
40465;Laerm;30489;48.982;8.394;2023-05-01T03:29:56;39.64;37.70;41.19;;
40465;Laerm;30489;48.982;8.394;2023-05-01T03:32:06;39.65;37.32;41.38;;
40465;Laerm;30489;48.982;8.394;2023-05-01T03:34:17;39.65;37.70;41.30;;
40465;Laerm;30489;48.982;8.394;2023-05-01T03:36:27;39.63;37.87;41.30;;
40465;Laerm;30489;48.982;8.394;2023-05-01T03:38:37;39.64;37.32;41.30;;
40465;Laerm;30489;48.982;8.394;2023-05-01T03:40:48;39.65;37.88;41.14;;
40465;Laerm;30489;48.982;8.394;2023-05-01T03:42:58;39.63;37.52;40.89;;
40465;Laerm;30489;48.982;8.394;2023-05-01T03:45:08;39.64;37.52;41.61;;
40465;Laerm;30489;48.982;8.394;2023-05-01T03:47:19;39.64;37.70;41.30;;
40465;Laerm;30489;48.982;8.394;2023-05-01T03:49:29;39.65;37.52;41.14;;
40465;Laerm;30489;48.982;8.394;2023-05-01T03:51:39;39.64;37.32;41.06;;
40465;Laerm;30489;48.982;8.394;2023-05-01T03:53:50;39.64;37.88;41.14;;
40465;Laerm;30489;48.982;8.394;2023-05-01T03:56:01;39.64;37.70;41.38;;
40465;Laerm;30489;48.982;8.394;2023-05-01T03:58:13;39.63;37.32;41.22;;
40465;Laerm;30489;48.982;8.394;2023-05-01T04:00:23;39.62;37.52;41.30;;
40465;Laerm;30489;48.982;8.394;2023-05-01T04:02:33;39.62;37.70;41.22;;
40465;Laerm;30489;48.982;8.394;2023-05-01T04:04:43;39.61;37.52;41.38;;
40465;Laerm;30489;48.982;8.394;2023-05-01T04:06:54;39.60;37.52;41.22;;
40465;Laerm;30489;48.982;8.394;2023-05-01T04:09:04;39.58;37.70;41.22;;
40465;Laerm;30489;48.982;8.394;2023-05-01T04:11:14;39.55;37.87;41.14;;
40465;Laerm;30489;48.982;8.394;2023-05-01T04:13:25;44.41;37.12;72.77;;
40465;Laerm;30489;48.982;8.394;2023-05-01T04:15:35;39.58;37.88;41.14;;
40465;Laerm;30489;48.982;8.394;2023-05-01T04:17:45;39.56;37.70;41.46;;
40465;Laerm;30489;48.982;8.394;2023-05-01T04:19:56;39.56;37.87;41.14;;
40465;Laerm;30489;48.982;8.394;2023-05-01T04:22:07;39.54;37.35;41.53;;
40465;Laerm;30489;48.982;8.394;2023-05-01T04:24:17;39.54;37.70;40.89;;
40465;Laerm;30489;48.982;8.394;2023-05-01T04:26:27;39.55;37.52;41.22;;
40465;Laerm;30489;48.982;8.394;2023-05-01T04:28:38;39.55;37.52;41.46;;
40465;Laerm;30489;48.982;8.394;2023-05-01T04:30:48;39.56;37.52;41.30;;
40465;Laerm;30489;48.982;8.394;2023-05-01T04:32:58;39.56;37.52;41.14;;
40465;Laerm;30489;48.982;8.394;2023-05-01T04:35:09;39.54;37.52;41.30;;
40465;Laerm;30489;48.982;8.394;2023-05-01T04:37:21;39.52;37.12;41.06;;
40465;Laerm;30489;48.982;8.394;2023-05-01T04:39:31;39.51;37.32;41.22;;
40465;Laerm;30489;48.982;8.394;2023-05-01T04:41:41;39.51;37.70;41.22;;
40465;Laerm;30489;48.982;8.394;2023-05-01T04:43:51;39.49;37.32;41.06;;
40465;Laerm;30489;48.982;8.394;2023-05-01T04:46:02;39.51;37.35;40.98;;
40465;Laerm;30489;48.982;8.394;2023-05-01T04:48:13;39.49;37.52;41.22;;
40465;Laerm;30489;48.982;8.394;2023-05-01T04:50:23;39.48;37.52;41.30;;
40465;Laerm;30489;48.982;8.394;2023-05-01T04:52:34;39.49;37.52;41.06;;
40465;Laerm;30489;48.982;8.394;2023-05-01T04:54:44;39.49;37.12;41.06;;
40465;Laerm;30489;48.982;8.394;2023-05-01T04:56:55;39.49;37.12;41.14;;
40465;Laerm;30489;48.982;8.394;2023-05-01T04:59:05;39.49;37.70;41.22;;
40465;Laerm;30489;48.982;8.394;2023-05-01T05:01:15;39.50;37.52;40.98;;
40465;Laerm;30489;48.982;8.394;2023-05-01T05:03:25;39.49;37.52;41.26;;
40465;Laerm;30489;48.982;8.394;2023-05-01T05:05:36;39.48;37.32;40.98;;
40465;Laerm;30489;48.982;8.394;2023-05-01T05:07:46;39.48;37.52;41.06;;
40465;Laerm;30489;48.982;8.394;2023-05-01T05:09:57;39.49;37.52;41.14;;
40465;Laerm;30489;48.982;8.394;2023-05-01T05:12:07;39.51;37.52;41.06;;
40465;Laerm;30489;48.982;8.394;2023-05-01T05:14:17;39.51;37.32;41.46;;
40465;Laerm;30489;48.982;8.394;2023-05-01T05:16:28;39.50;37.52;41.14;;
40465;Laerm;30489;48.982;8.394;2023-05-01T05:18:38;39.51;37.32;41.22;;
40465;Laerm;30489;48.982;8.394;2023-05-01T05:20:48;39.50;37.52;40.98;;
40465;Laerm;30489;48.982;8.394;2023-05-01T05:22:58;39.53;37.52;41.30;;
40465;Laerm;30489;48.982;8.394;2023-05-01T05:25:09;39.54;37.70;41.75;;
40465;Laerm;30489;48.982;8.394;2023-05-01T05:27:19;39.57;37.52;41.30;;
40465;Laerm;30489;48.982;8.394;2023-05-01T05:29:30;39.57;37.52;41.06;;
40465;Laerm;30489;48.982;8.394;2023-05-01T05:31:40;39.57;37.52;47.04;;
40465;Laerm;30489;48.982;8.394;2023-05-01T05:33:50;39.58;37.12;41.22;;
40465;Laerm;30489;48.982;8.394;2023-05-01T05:36:01;39.59;37.52;41.06;;
40465;Laerm;30489;48.982;8.394;2023-05-01T05:38:12;39.63;37.70;41.22;;
40465;Laerm;30489;48.982;8.394;2023-05-01T05:40:23;39.62;37.70;41.38;;
40465;Laerm;30489;48.982;8.394;2023-05-01T05:42:33;39.65;37.52;41.14;;
40465;Laerm;30489;48.982;8.394;2023-05-01T05:44:43;39.64;38.05;41.30;;
40465;Laerm;30489;48.982;8.394;2023-05-01T05:46:54;39.69;37.88;41.14;;
40465;Laerm;30489;48.982;8.394;2023-05-01T05:49:04;39.74;37.88;41.46;;
40465;Laerm;30489;48.982;8.394;2023-05-01T05:51:14;39.71;37.70;41.14;;
40465;Laerm;30489;48.982;8.394;2023-05-01T05:53:25;39.70;37.32;41.38;;
40465;Laerm;30489;48.982;8.394;2023-05-01T05:55:35;39.72;38.05;41.30;;
40465;Laerm;30489;48.982;8.394;2023-05-01T05:57:45;39.75;37.88;41.53;;
40465;Laerm;30489;48.982;8.394;2023-05-01T05:59:55;39.77;38.05;41.38;;
40465;Laerm;30489;48.982;8.394;2023-05-01T06:02:06;39.80;37.70;41.41;;
40465;Laerm;30489;48.982;8.394;2023-05-01T06:04:16;39.83;37.88;41.38;;
40465;Laerm;30489;48.982;8.394;2023-05-01T06:06:27;39.82;37.88;41.30;;
40465;Laerm;30489;48.982;8.394;2023-05-01T06:08:37;39.83;37.88;41.30;;
40465;Laerm;30489;48.982;8.394;2023-05-01T06:10:47;39.84;37.88;41.46;;
40465;Laerm;30489;48.982;8.394;2023-05-01T06:12:57;39.85;37.88;41.22;;
40465;Laerm;30489;48.982;8.394;2023-05-01T06:15:08;39.85;37.88;41.30;;
40465;Laerm;30489;48.982;8.394;2023-05-01T06:17:18;39.83;38.02;41.30;;
40465;Laerm;30489;48.982;8.394;2023-05-01T06:19:29;39.81;37.70;41.22;;
40465;Laerm;30489;48.982;8.394;2023-05-01T06:21:39;39.82;38.21;41.22;;
40465;Laerm;30489;48.982;8.394;2023-05-01T06:23:50;39.79;38.05;41.14;;
40465;Laerm;30489;48.982;8.394;2023-05-01T06:26:01;39.89;37.88;41.30;;
40465;Laerm;30489;48.982;8.394;2023-05-01T06:28:11;39.86;38.05;41.53;;
40465;Laerm;30489;48.982;8.394;2023-05-01T06:30:21;39.85;38.21;41.30;;
40465;Laerm;30489;48.982;8.394;2023-05-01T06:32:32;39.87;37.88;41.53;;
40465;Laerm;30489;48.982;8.394;2023-05-01T06:34:42;39.89;38.05;41.22;;
40465;Laerm;30489;48.982;8.394;2023-05-01T06:36:52;39.93;38.21;41.30;;
40465;Laerm;30489;48.982;8.394;2023-05-01T06:39:03;39.92;37.88;41.30;;
40465;Laerm;30489;48.982;8.394;2023-05-01T06:41:17;39.93;38.18;41.53;;
40465;Laerm;30489;48.982;8.394;2023-05-01T06:43:27;39.92;38.37;41.41;;
40465;Laerm;30489;48.982;8.394;2023-05-01T06:45:39;39.91;38.21;41.38;;
40465;Laerm;30489;48.982;8.394;2023-05-01T06:47:51;39.93;38.21;41.46;;
40465;Laerm;30489;48.982;8.394;2023-05-01T06:50:01;39.91;37.88;41.68;;
40465;Laerm;30489;48.982;8.394;2023-05-01T06:52:13;39.87;38.05;41.38;;
40465;Laerm;30489;48.982;8.394;2023-05-01T06:54:23;39.84;38.05;41.22;;
40465;Laerm;30489;48.982;8.394;2023-05-01T06:56:34;39.84;37.70;41.53;;
40465;Laerm;30489;48.982;8.394;2023-05-01T06:58:44;39.93;38.21;41.61;;
40465;Laerm;30489;48.982;8.394;2023-05-01T07:00:54;39.85;37.52;41.38;;
40465;Laerm;30489;48.982;8.394;2023-05-01T07:03:04;39.84;38.21;41.38;;
40465;Laerm;30489;48.982;8.394;2023-05-01T07:05:14;39.89;37.87;41.46;;
40465;Laerm;30489;48.982;8.394;2023-05-01T07:07:25;39.88;37.70;41.30;;
40465;Laerm;30489;48.982;8.394;2023-05-01T07:09:35;39.78;37.88;41.38;;
40465;Laerm;30489;48.982;8.394;2023-05-01T07:11:45;39.74;37.70;41.30;;
40465;Laerm;30489;48.982;8.394;2023-05-01T07:13:56;39.75;37.88;41.38;;
40465;Laerm;30489;48.982;8.394;2023-05-01T07:16:06;39.76;38.05;41.30;;
40465;Laerm;30489;48.982;8.394;2023-05-01T07:18:17;39.68;37.70;41.30;;
40465;Laerm;30489;48.982;8.394;2023-05-01T07:20:27;39.67;37.52;41.22;;
40465;Laerm;30489;48.982;8.394;2023-05-01T07:22:37;39.71;37.88;41.30;;
40465;Laerm;30489;48.982;8.394;2023-05-01T07:24:47;39.75;37.88;41.38;;
40465;Laerm;30489;48.982;8.394;2023-05-01T07:26:58;39.76;37.88;41.38;;
40465;Laerm;30489;48.982;8.394;2023-05-01T07:29:09;39.74;37.70;41.46;;
40465;Laerm;30489;48.982;8.394;2023-05-01T07:31:20;39.72;37.88;41.46;;
40465;Laerm;30489;48.982;8.394;2023-05-01T07:33:30;39.70;37.88;41.53;;
40465;Laerm;30489;48.982;8.394;2023-05-01T07:35:40;39.69;37.70;41.06;;
40465;Laerm;30489;48.982;8.394;2023-05-01T07:37:52;39.71;37.70;41.22;;
40465;Laerm;30489;48.982;8.394;2023-05-01T07:40:02;39.76;38.05;41.14;;
40465;Laerm;30489;48.982;8.394;2023-05-01T07:42:12;39.79;38.05;41.68;;
40465;Laerm;30489;48.982;8.394;2023-05-01T07:44:22;39.83;38.05;41.14;;
40465;Laerm;30489;48.982;8.394;2023-05-01T07:46:33;39.89;38.21;41.53;;
40465;Laerm;30489;48.982;8.394;2023-05-01T07:48:44;39.91;38.21;41.22;;
40465;Laerm;30489;48.982;8.394;2023-05-01T07:50:54;39.96;38.21;41.68;;
40465;Laerm;30489;48.982;8.394;2023-05-01T07:53:05;39.99;38.37;41.38;;
40465;Laerm;30489;48.982;8.394;2023-05-01T07:55:16;39.96;38.05;41.38;;
40465;Laerm;30489;48.982;8.394;2023-05-01T07:57:28;40.02;37.70;41.46;;
40465;Laerm;30489;48.982;8.394;2023-05-01T07:59:39;40.03;37.88;41.61;;
40465;Laerm;30489;48.982;8.394;2023-05-01T08:01:49;40.01;38.21;41.46;;
40465;Laerm;30489;48.982;8.394;2023-05-01T08:03:59;40.02;38.21;41.46;;
40465;Laerm;30489;48.982;8.394;2023-05-01T08:06:10;40.02;38.05;41.53;;
40465;Laerm;30489;48.982;8.394;2023-05-01T08:08:20;40.03;38.37;41.68;;
40465;Laerm;30489;48.982;8.394;2023-05-01T08:10:30;40.03;38.21;41.48;;
40465;Laerm;30489;48.982;8.394;2023-05-01T08:12:40;40.03;38.37;41.46;;
40465;Laerm;30489;48.982;8.394;2023-05-01T08:14:51;40.00;38.21;41.53;;
40465;Laerm;30489;48.982;8.394;2023-05-01T08:17:01;40.03;38.37;41.61;;
40465;Laerm;30489;48.982;8.394;2023-05-01T08:19:11;40.05;38.37;41.53;;
40465;Laerm;30489;48.982;8.394;2023-05-01T08:21:22;40.09;38.37;41.53;;
40465;Laerm;30489;48.982;8.394;2023-05-01T08:23:32;40.11;38.37;41.68;;
40465;Laerm;30489;48.982;8.394;2023-05-01T08:25:42;40.16;38.37;41.46;;
40465;Laerm;30489;48.982;8.394;2023-05-01T08:27:55;40.14;38.52;41.61;;
40465;Laerm;30489;48.982;8.394;2023-05-01T08:30:06;40.14;38.67;41.46;;
40465;Laerm;30489;48.982;8.394;2023-05-01T08:32:17;40.13;38.21;41.46;;
40465;Laerm;30489;48.982;8.394;2023-05-01T08:34:27;40.14;38.67;41.61;;
40465;Laerm;30489;48.982;8.394;2023-05-01T08:36:37;40.18;38.21;41.46;;
40465;Laerm;30489;48.982;8.394;2023-05-01T08:38:48;40.20;38.21;41.68;;
40465;Laerm;30489;48.982;8.394;2023-05-01T08:40:58;40.17;38.37;41.68;;
40465;Laerm;30489;48.982;8.394;2023-05-01T08:43:10;40.20;38.67;41.89;;
40465;Laerm;30489;48.982;8.394;2023-05-01T08:45:22;40.16;38.37;41.68;;
40465;Laerm;30489;48.982;8.394;2023-05-01T08:47:34;40.21;38.37;41.53;;
40465;Laerm;30489;48.982;8.394;2023-05-01T08:49:45;40.18;38.52;41.61;;
40465;Laerm;30489;48.982;8.394;2023-05-01T08:51:57;40.18;38.52;41.53;;
40465;Laerm;30489;48.982;8.394;2023-05-01T08:54:07;40.19;38.52;41.75;;
40465;Laerm;30489;48.982;8.394;2023-05-01T08:56:18;40.15;38.37;41.61;;
40465;Laerm;30489;48.982;8.394;2023-05-01T08:58:31;40.19;38.67;41.53;;
40465;Laerm;30489;48.982;8.394;2023-05-01T09:00:43;40.20;38.52;41.61;;
40465;Laerm;30489;48.982;8.394;2023-05-01T09:02:54;40.16;38.52;41.46;;
40465;Laerm;30489;48.982;8.394;2023-05-01T09:05:05;40.22;37.88;41.75;;
40465;Laerm;30489;48.982;8.394;2023-05-01T09:07:16;40.22;38.52;41.75;;
40465;Laerm;30489;48.982;8.394;2023-05-01T09:09:30;40.28;38.67;42.22;;
40465;Laerm;30489;48.982;8.394;2023-05-01T09:11:43;40.31;38.52;41.68;;
40465;Laerm;30489;48.982;8.394;2023-05-01T09:13:53;40.38;38.52;41.82;;
40465;Laerm;30489;48.982;8.394;2023-05-01T09:16:04;40.39;39.08;42.65;;
40465;Laerm;30489;48.982;8.394;2023-05-01T09:18:15;40.33;38.67;41.82;;
40465;Laerm;30489;48.982;8.394;2023-05-01T09:20:25;40.36;38.52;41.68;;
40465;Laerm;30489;48.982;8.394;2023-05-01T09:22:36;40.35;38.52;41.68;;
40465;Laerm;30489;48.982;8.394;2023-05-01T09:24:46;40.33;38.67;41.96;;
40465;Laerm;30489;48.982;8.394;2023-05-01T09:26:56;40.37;38.52;41.68;;
40465;Laerm;30489;48.982;8.394;2023-05-01T09:29:07;40.37;38.37;45.60;;
40465;Laerm;30489;48.982;8.394;2023-05-01T09:31:23;40.39;38.81;41.75;;
40465;Laerm;30489;48.982;8.394;2023-05-01T09:33:34;40.45;38.81;41.75;;
40465;Laerm;30489;48.982;8.394;2023-05-01T09:36:00;40.43;38.81;41.75;;
40465;Laerm;30489;48.982;8.394;2023-05-01T09:38:10;40.38;38.95;41.61;;
40465;Laerm;30489;48.982;8.394;2023-05-01T09:40:26;40.39;38.95;41.61;;
40465;Laerm;30489;48.982;8.394;2023-05-01T09:42:47;40.35;38.74;41.75;;
40465;Laerm;30489;48.982;8.394;2023-05-01T09:44:58;40.35;38.67;41.82;;
40465;Laerm;30489;48.982;8.394;2023-05-01T09:47:09;40.37;38.67;41.75;;
40465;Laerm;30489;48.982;8.394;2023-05-01T09:49:32;40.42;38.60;41.68;;
40465;Laerm;30489;48.982;8.394;2023-05-01T09:51:51;40.44;38.81;41.82;;
40465;Laerm;30489;48.982;8.394;2023-05-01T09:54:02;40.45;38.67;41.82;;
40465;Laerm;30489;48.982;8.394;2023-05-01T09:56:13;40.48;38.95;42.03;;
40465;Laerm;30489;48.982;8.394;2023-05-01T09:58:27;40.51;38.67;41.82;;
40465;Laerm;30489;48.982;8.394;2023-05-01T10:00:47;40.51;38.95;41.82;;
40465;Laerm;30489;48.982;8.394;2023-05-01T10:02:58;40.52;39.08;41.82;;
40465;Laerm;30489;48.982;8.394;2023-05-01T10:05:21;40.58;39.08;42.22;;
40465;Laerm;30489;48.982;8.394;2023-05-01T10:07:32;40.52;39.21;41.82;;
40465;Laerm;30489;48.982;8.394;2023-05-01T10:09:43;40.52;38.67;41.75;;
40465;Laerm;30489;48.982;8.394;2023-05-01T10:11:54;40.60;39.21;41.82;;
40465;Laerm;30489;48.982;8.394;2023-05-01T10:16:26;40.66;38.95;41.89;;
40465;Laerm;30489;48.982;8.394;2023-05-01T10:18:37;40.68;39.34;41.96;;
40465;Laerm;30489;48.982;8.394;2023-05-01T10:20:47;40.67;38.67;42.35;;
40465;Laerm;30489;48.982;8.394;2023-05-01T10:22:58;40.64;39.21;41.96;;
40465;Laerm;30489;48.982;8.394;2023-05-01T10:25:08;40.62;39.34;42.03;;
40465;Laerm;30489;48.982;8.394;2023-05-01T10:27:21;40.61;39.08;41.89;;
40465;Laerm;30489;48.982;8.394;2023-05-01T10:29:33;40.64;39.34;41.96;;
40465;Laerm;30489;48.982;8.394;2023-05-01T10:31:45;40.62;39.08;41.82;;
40465;Laerm;30489;48.982;8.394;2023-05-01T10:33:55;40.62;39.21;41.96;;
40465;Laerm;30489;48.982;8.394;2023-05-01T10:36:07;40.58;39.08;41.89;;
40465;Laerm;30489;48.982;8.394;2023-05-01T10:38:31;40.59;38.81;41.96;;
40465;Laerm;30489;48.982;8.394;2023-05-01T10:40:44;40.60;39.08;41.89;;
40465;Laerm;30489;48.982;8.394;2023-05-01T10:45:28;40.53;39.08;41.89;;
40465;Laerm;30489;48.982;8.394;2023-05-01T10:57:43;40.67;39.34;41.89;;
40465;Laerm;30489;48.982;8.394;2023-05-01T11:02:22;40.81;39.34;42.09;;
40465;Laerm;30489;48.982;8.394;2023-05-01T11:04:49;40.76;39.46;42.59;;
40465;Laerm;30489;48.982;8.394;2023-05-01T11:11:44;40.85;39.21;42.03;;
40465;Laerm;30489;48.982;8.394;2023-05-01T11:14:00;40.94;39.46;42.16;;
40465;Laerm;30489;48.982;8.394;2023-05-01T11:18:44;40.96;39.58;42.29;;
40465;Laerm;30489;48.982;8.394;2023-05-01T11:20:54;40.94;39.58;42.22;;
40465;Laerm;30489;48.982;8.394;2023-05-01T11:23:04;40.98;39.34;42.16;;
40465;Laerm;30489;48.982;8.394;2023-05-01T11:25:16;40.97;38.95;42.09;;
40465;Laerm;30489;48.982;8.394;2023-05-01T11:27:27;40.99;39.58;42.22;;
40465;Laerm;30489;48.982;8.394;2023-05-01T11:29:38;41.05;39.70;42.59;;
40465;Laerm;30489;48.982;8.394;2023-05-01T11:31:48;41.06;39.81;42.29;;
40465;Laerm;30489;48.982;8.394;2023-05-01T11:33:58;41.11;39.46;42.35;;
40465;Laerm;30489;48.982;8.394;2023-05-01T11:36:09;41.08;39.81;42.22;;
40465;Laerm;30489;48.982;8.394;2023-05-01T11:38:19;41.12;39.81;42.35;;
40465;Laerm;30489;48.982;8.394;2023-05-01T11:40:31;41.12;39.81;42.59;;
40465;Laerm;30489;48.982;8.394;2023-05-01T11:42:42;41.18;39.92;42.35;;
40465;Laerm;30489;48.982;8.394;2023-05-01T11:45:07;41.18;39.92;42.35;;
40465;Laerm;30489;48.982;8.394;2023-05-01T11:47:20;41.22;39.89;42.47;;
40465;Laerm;30489;48.982;8.394;2023-05-01T11:49:30;41.34;40.13;42.53;;
40465;Laerm;30489;48.982;8.394;2023-05-01T11:51:40;41.34;40.13;42.47;;
40465;Laerm;30489;48.982;8.394;2023-05-01T11:56:18;41.31;40.03;42.47;;
40465;Laerm;30489;48.982;8.394;2023-05-01T11:58:29;41.39;39.92;42.53;;
40465;Laerm;30489;48.982;8.394;2023-05-01T12:00:41;41.37;39.81;42.53;;
40465;Laerm;30489;48.982;8.394;2023-05-01T12:05:15;41.37;40.03;42.59;;
40465;Laerm;30489;48.982;8.394;2023-05-01T12:07:26;41.34;40.03;42.35;;
40465;Laerm;30489;48.982;8.394;2023-05-01T12:09:36;41.30;40.13;42.47;;
40465;Laerm;30489;48.982;8.394;2023-05-01T12:11:50;41.33;39.92;42.41;;
40465;Laerm;30489;48.982;8.394;2023-05-01T12:14:01;41.39;40.03;42.59;;
40465;Laerm;30489;48.982;8.394;2023-05-01T12:16:13;41.39;39.92;42.65;;
40465;Laerm;30489;48.982;8.394;2023-05-01T12:18:23;41.40;40.23;42.41;;
40465;Laerm;30489;48.982;8.394;2023-05-01T12:22:48;41.38;39.92;42.41;;
40465;Laerm;30489;48.982;8.394;2023-05-01T12:24:59;41.35;40.03;42.41;;
40465;Laerm;30489;48.982;8.394;2023-05-01T12:27:09;41.32;40.03;42.59;;
40465;Laerm;30489;48.982;8.394;2023-05-01T12:29:20;41.32;40.13;42.47;;
40465;Laerm;30489;48.982;8.394;2023-05-01T12:31:30;41.35;39.99;42.47;;
40465;Laerm;30489;48.982;8.394;2023-05-01T12:33:41;41.31;40.03;42.41;;
40465;Laerm;30489;48.982;8.394;2023-05-01T12:36:08;41.25;39.92;42.29;;
40465;Laerm;30489;48.982;8.394;2023-05-01T12:38:22;41.25;39.81;42.41;;
40465;Laerm;30489;48.982;8.394;2023-05-01T12:40:32;41.23;39.81;42.47;;
40465;Laerm;30489;48.982;8.394;2023-05-01T12:42:42;41.21;39.81;42.65;;
40465;Laerm;30489;48.982;8.394;2023-05-01T12:44:57;41.24;39.92;42.35;;
40465;Laerm;30489;48.982;8.394;2023-05-01T12:47:08;41.26;40.03;42.42;;
40465;Laerm;30489;48.982;8.394;2023-05-01T12:49:19;41.23;39.92;42.35;;
40465;Laerm;30489;48.982;8.394;2023-05-01T12:51:29;41.27;39.92;42.53;;
40465;Laerm;30489;48.982;8.394;2023-05-01T12:53:42;41.27;39.81;42.35;;
40465;Laerm;30489;48.982;8.394;2023-05-01T12:55:54;41.19;40.03;42.29;;
40465;Laerm;30489;48.982;8.394;2023-05-01T12:58:04;41.11;39.70;42.35;;
40465;Laerm;30489;48.982;8.394;2023-05-01T13:00:14;41.11;39.46;42.29;;